RJD weather

Ridgely Airpark
Ridgely, Maryland, United States

Public forecast

Using degrees Fahrenheit for public forecast. Weather courtesy of forecast.io.

METAR (pilot weather report)

Closest report is Easton Newnam Field, 13.7 nm (25.5 km) SW. Retrieved 2019/06/25 07:39 UTC (20 minutes ago):

KESN 250739Z AUTO 24004KT 10SM SCT047 SCT060 25/24 A2983 RMK AO2 T02510235

TAF (pilot weather forecast)

Closest forecast is Dover Air Force Base, 21.0 nm (38.8 km) ENE. Retrieved 2019/06/25 08:28 UTC (0 seconds ago):

TAF KDOV 250800Z 2508/2614 20009KT 9999 BKN040 QNH2977INS TEMPO 2508/2513 8000 -SHRA BKN020 BECMG 2513/2514 28012KT 9999 FEW040 QNH2982INS BECMG 2517/2518 27009KT 9999 SKC QNH2986INS TX30/2519Z TN20/2608Z